Sns 147 — FGD5989 — position and weather

sailwx.info

Track history (hours):
 
Tides and Currents Weather Stations Pressure Air Temp Water Temp Dewpoint Dewpoint Depression Visibility Wind Speed Wind Dir Waves Ship Positions

Sns 147

Last reported at 2018-Jun-19 11:44 UTC. Time now 2018-Jun-21 16:29 UTC.
Position N 47°39' W 003°27'.

Length 15 m; draft 1.5 m.

Type: SAR. MMSI: 227574960.

Date/timePositionNaut miles runAvg speedWind from/ knotsBaromVisibWave heightAir tempDewpointWater temp
2018-Jun-19 11:44N 47°39' W 003°27'419.7
2018-Jun-19 11:31N 47°42' W 003°23'4 8.6
2018-Jun-19 11:00N 47°39' W 003°27'0 0.0
2018-Jun-18 12:24N 47°39' W 003°27'615.2
2018-Jun-18 12:00N 47°44' W 003°22'612.0
2018-Jun-18 11:30N 47°39' W 003°27'0 0.0
2018-Jun-17 15:19N 47°39' W 003°27'516.4
2018-Jun-17 15:00N 47°43' W 003°22'1 2.3
2018-Jun-17 14:30N 47°44' W 003°22'0 0.1
2018-Jun-17 14:00N 47°44' W 003°22'0 0.0
2018-Jun-17 13:30N 47°44' W 003°22'0 0.0
2018-Jun-17 13:00N 47°44' W 003°22'0 0.0
2018-Jun-17 10:18N 47°44' W 003°22'0 0.0
2018-Jun-17 10:01N 47°44' W 003°22'0 0.0
2018-Jun-17 09:31N 47°44' W 003°22'0 0.0
2018-Jun-17 09:00N 47°44' W 003°22'611.5
2018-Jun-17 08:30N 47°39' W 003°27'0 0.0
2018-Jun-15 13:58N 47°39' W 003°27'613.0
2018-Jun-15 13:30N 47°44' W 003°22'  
2018-Jun-12 14:03N 47°45' W 003°21'0 0.1
2018-Jun-12 14:01N 47°45' W 003°21'613.0
2018-Jun-12 13:31N 47°39' W 003°26'1 0.0
2018-Jun-11 21:42N 47°39' W 003°27'314.1
2018-Jun-11 21:31N 47°41' W 003°24'3 5.2
2018-Jun-11 21:00N 47°43' W 003°22'510.5
2018-Jun-11 20:30N 47°39' W 003°27'0 0.0
2018-Jun-11 17:45N 47°39' W 003°27'2 9.5
2018-Jun-11 17:30N 47°40' W 003°25'1 1.7
2018-Jun-11 17:00N 47°40' W 003°25'1 0.1
2018-Jun-10 16:54N 47°39' W 003°27'615.0
2018-Jun-10 16:30N 47°44' W 003°22'  
Track history (hours):
 
Tides and Currents Weather Stations Pressure Air Temp Water Temp Dewpoint Dewpoint Depression Visibility Wind Speed Wind Dir Waves Ship Positions

Sns 147

Last reported at 2018-Jun-19 11:44 UTC. Time now 2018-Jun-21 16:29 UTC.
Position N 47°39' W 003°27'.

Length 15 m; draft 1.5 m.

Type: SAR. MMSI: 227574960.

Date/timePositionNaut miles runAvg speedWind from/ knotsBaromVisibWave heightAir tempDewpointWater temp
2018-Jun-19 11:44N 47°39' W 003°27'419.7
2018-Jun-19 11:31N 47°42' W 003°23'4 8.6
2018-Jun-19 11:00N 47°39' W 003°27'0 0.0
2018-Jun-18 12:24N 47°39' W 003°27'615.2
2018-Jun-18 12:00N 47°44' W 003°22'612.0
2018-Jun-18 11:30N 47°39' W 003°27'0 0.0
2018-Jun-17 15:19N 47°39' W 003°27'516.4
2018-Jun-17 15:00N 47°43' W 003°22'1 2.3
2018-Jun-17 14:30N 47°44' W 003°22'0 0.1
2018-Jun-17 14:00N 47°44' W 003°22'0 0.0
2018-Jun-17 13:30N 47°44' W 003°22'0 0.0
2018-Jun-17 13:00N 47°44' W 003°22'0 0.0
2018-Jun-17 10:18N 47°44' W 003°22'0 0.0
2018-Jun-17 10:01N 47°44' W 003°22'0 0.0
2018-Jun-17 09:31N 47°44' W 003°22'0 0.0
2018-Jun-17 09:00N 47°44' W 003°22'611.5
2018-Jun-17 08:30N 47°39' W 003°27'0 0.0
2018-Jun-15 13:58N 47°39' W 003°27'613.0
2018-Jun-15 13:30N 47°44' W 003°22'  
2018-Jun-12 14:03N 47°45' W 003°21'0 0.1
2018-Jun-12 14:01N 47°45' W 003°21'613.0
2018-Jun-12 13:31N 47°39' W 003°26'1 0.0
2018-Jun-11 21:42N 47°39' W 003°27'314.1
2018-Jun-11 21:31N 47°41' W 003°24'3 5.2
2018-Jun-11 21:00N 47°43' W 003°22'510.5
2018-Jun-11 20:30N 47°39' W 003°27'0 0.0
2018-Jun-11 17:45N 47°39' W 003°27'2 9.5
2018-Jun-11 17:30N 47°40' W 003°25'1 1.7
2018-Jun-11 17:00N 47°40' W 003°25'1 0.1
2018-Jun-10 16:54N 47°39' W 003°27'615.0
2018-Jun-10 16:30N 47°44' W 003°22'  

Dump ship's entire track history